Fryburg, Pennsylvania
Current Conditions -  °F | °C
As of 5:15 PM on Sunday 21 Dec 2014 (Local Time) from KFKL Reporting Station
Overcast Overcast  
Wind Chill: 23°   Ceiling: 1900
Heat Index: 28°   Visibility: 10mi
Dew Point: 19°   Wind: 5mph
Humidity: 69%   Direction: 120°ESE
Pressure: 30.24"   Gusts: NA
Location:  41.35°N, 79.44°W
Report Text: KFKL 212215Z AUTO 12004KT 10SM OVC019 M02/M07 A3024 RMK AO1
Loading
Personal Weather Stations






























Interactive Weather Map New forecast layout! Learn more

10-Day Weather Forecast

Advertisements
Track Severe Weather on mobile